sensor_id;sensor_type;location;lat;lon;timestamp;P1;durP1;ratioP1;P2;durP2;ratioP2
5157;SDS011;2598;52.364;9.772;2023-09-12T00:01:04;14.03;;;9.70;;
5157;SDS011;2598;52.364;9.772;2023-09-12T00:03:31;14.10;;;8.87;;
5157;SDS011;2598;52.364;9.772;2023-09-12T00:05:58;16.17;;;8.83;;
5157;SDS011;2598;52.364;9.772;2023-09-12T00:08:25;13.03;;;8.20;;
5157;SDS011;2598;52.364;9.772;2023-09-12T00:13:29;13.00;;;8.73;;
5157;SDS011;2598;52.364;9.772;2023-09-12T00:15:55;13.57;;;9.50;;
5157;SDS011;2598;52.364;9.772;2023-09-12T00:18:21;15.47;;;9.83;;
5157;SDS011;2598;52.364;9.772;2023-09-12T00:20:47;16.77;;;10.33;;
5157;SDS011;2598;52.364;9.772;2023-09-12T00:23:13;18.20;;;9.43;;
5157;SDS011;2598;52.364;9.772;2023-09-12T00:25:39;18.20;;;10.90;;
5157;SDS011;2598;52.364;9.772;2023-09-12T00:28:05;18.97;;;9.57;;
5157;SDS011;2598;52.364;9.772;2023-09-12T00:30:31;16.23;;;10.23;;
5157;SDS011;2598;52.364;9.772;2023-09-12T00:32:57;15.60;;;9.80;;
5157;SDS011;2598;52.364;9.772;2023-09-12T00:35:23;17.43;;;9.53;;
5157;SDS011;2598;52.364;9.772;2023-09-12T00:37:49;16.90;;;10.47;;
5157;SDS011;2598;52.364;9.772;2023-09-12T00:40:15;16.07;;;10.50;;
5157;SDS011;2598;52.364;9.772;2023-09-12T00:42:41;13.80;;;9.60;;
5157;SDS011;2598;52.364;9.772;2023-09-12T00:45:07;17.83;;;10.00;;
5157;SDS011;2598;52.364;9.772;2023-09-12T00:47:33;15.83;;;10.03;;
5157;SDS011;2598;52.364;9.772;2023-09-12T00:50:01;15.23;;;10.10;;
5157;SDS011;2598;52.364;9.772;2023-09-12T00:52:28;19.03;;;10.20;;
5157;SDS011;2598;52.364;9.772;2023-09-12T00:54:54;23.23;;;9.83;;
5157;SDS011;2598;52.364;9.772;2023-09-12T00:57:21;16.77;;;10.03;;
5157;SDS011;2598;52.364;9.772;2023-09-12T00:59:47;15.47;;;9.70;;
5157;SDS011;2598;52.364;9.772;2023-09-12T01:02:13;14.97;;;10.00;;
5157;SDS011;2598;52.364;9.772;2023-09-12T01:04:40;14.20;;;9.90;;
5157;SDS011;2598;52.364;9.772;2023-09-12T01:07:07;18.47;;;9.50;;
5157;SDS011;2598;52.364;9.772;2023-09-12T01:09:33;16.67;;;9.27;;
5157;SDS011;2598;52.364;9.772;2023-09-12T01:12:00;21.17;;;10.40;;
5157;SDS011;2598;52.364;9.772;2023-09-12T01:14:29;18.37;;;11.30;;
5157;SDS011;2598;52.364;9.772;2023-09-12T01:16:55;17.10;;;9.73;;
5157;SDS011;2598;52.364;9.772;2023-09-12T01:19:21;14.50;;;9.33;;
5157;SDS011;2598;52.364;9.772;2023-09-12T01:21:56;15.47;;;9.90;;
5157;SDS011;2598;52.364;9.772;2023-09-12T01:30:09;16.80;;;9.20;;
5157;SDS011;2598;52.364;9.772;2023-09-12T01:32:36;15.83;;;11.10;;
5157;SDS011;2598;52.364;9.772;2023-09-12T01:35:03;11.73;;;8.60;;
5157;SDS011;2598;52.364;9.772;2023-09-12T01:37:30;13.47;;;9.37;;
5157;SDS011;2598;52.364;9.772;2023-09-12T01:39:56;15.70;;;9.63;;
5157;SDS011;2598;52.364;9.772;2023-09-12T01:42:22;16.23;;;8.90;;
5157;SDS011;2598;52.364;9.772;2023-09-12T01:44:49;14.40;;;8.83;;
5157;SDS011;2598;52.364;9.772;2023-09-12T01:47:16;15.07;;;9.77;;
5157;SDS011;2598;52.364;9.772;2023-09-12T01:49:45;14.30;;;9.97;;
5157;SDS011;2598;52.364;9.772;2023-09-12T01:52:12;19.77;;;11.37;;
5157;SDS011;2598;52.364;9.772;2023-09-12T01:54:38;14.50;;;10.43;;
5157;SDS011;2598;52.364;9.772;2023-09-12T01:57:06;20.27;;;12.00;;
5157;SDS011;2598;52.364;9.772;2023-09-12T01:59:33;14.20;;;10.80;;
5157;SDS011;2598;52.364;9.772;2023-09-12T02:01:59;16.13;;;11.80;;
5157;SDS011;2598;52.364;9.772;2023-09-12T02:04:25;17.07;;;11.87;;
5157;SDS011;2598;52.364;9.772;2023-09-12T02:06:51;14.40;;;11.10;;
5157;SDS011;2598;52.364;9.772;2023-09-12T02:09:17;17.60;;;10.80;;
5157;SDS011;2598;52.364;9.772;2023-09-12T02:11:43;27.53;;;10.87;;
5157;SDS011;2598;52.364;9.772;2023-09-12T02:14:09;18.90;;;10.20;;
5157;SDS011;2598;52.364;9.772;2023-09-12T02:16:36;13.20;;;9.37;;
5157;SDS011;2598;52.364;9.772;2023-09-12T02:19:02;15.17;;;9.97;;
5157;SDS011;2598;52.364;9.772;2023-09-12T02:21:28;18.57;;;11.47;;
5157;SDS011;2598;52.364;9.772;2023-09-12T02:23:55;14.90;;;10.60;;
5157;SDS011;2598;52.364;9.772;2023-09-12T02:26:21;18.70;;;11.37;;
5157;SDS011;2598;52.364;9.772;2023-09-12T02:28:47;13.50;;;10.10;;
5157;SDS011;2598;52.364;9.772;2023-09-12T02:31:13;16.73;;;10.20;;
5157;SDS011;2598;52.364;9.772;2023-09-12T02:33:39;16.73;;;11.37;;
5157;SDS011;2598;52.364;9.772;2023-09-12T02:36:05;19.53;;;10.90;;
5157;SDS011;2598;52.364;9.772;2023-09-12T02:38:31;14.73;;;10.23;;
5157;SDS011;2598;52.364;9.772;2023-09-12T02:40:57;19.70;;;11.70;;
5157;SDS011;2598;52.364;9.772;2023-09-12T02:43:23;15.53;;;10.00;;
5157;SDS011;2598;52.364;9.772;2023-09-12T02:45:49;16.33;;;11.30;;
5157;SDS011;2598;52.364;9.772;2023-09-12T02:48:15;20.60;;;13.00;;
5157;SDS011;2598;52.364;9.772;2023-09-12T02:50:41;20.87;;;13.20;;
5157;SDS011;2598;52.364;9.772;2023-09-12T02:53:07;17.00;;;11.97;;
5157;SDS011;2598;52.364;9.772;2023-09-12T02:55:33;22.10;;;12.97;;
5157;SDS011;2598;52.364;9.772;2023-09-12T02:57:59;22.00;;;13.67;;
5157;SDS011;2598;52.364;9.772;2023-09-12T03:00:25;19.53;;;13.07;;
5157;SDS011;2598;52.364;9.772;2023-09-12T03:02:51;19.73;;;12.47;;
5157;SDS011;2598;52.364;9.772;2023-09-12T03:05:17;19.90;;;13.07;;
5157;SDS011;2598;52.364;9.772;2023-09-12T03:07:43;17.40;;;13.47;;
5157;SDS011;2598;52.364;9.772;2023-09-12T03:10:09;21.13;;;13.50;;
5157;SDS011;2598;52.364;9.772;2023-09-12T03:12:35;15.50;;;12.33;;
5157;SDS011;2598;52.364;9.772;2023-09-12T03:15:02;16.67;;;11.87;;
5157;SDS011;2598;52.364;9.772;2023-09-12T03:17:28;20.60;;;13.90;;
5157;SDS011;2598;52.364;9.772;2023-09-12T03:19:54;16.40;;;12.27;;
5157;SDS011;2598;52.364;9.772;2023-09-12T03:22:20;16.43;;;11.10;;
5157;SDS011;2598;52.364;9.772;2023-09-12T03:24:46;17.93;;;12.23;;
5157;SDS011;2598;52.364;9.772;2023-09-12T03:27:12;20.10;;;12.70;;
5157;SDS011;2598;52.364;9.772;2023-09-12T03:29:38;17.63;;;13.10;;
5157;SDS011;2598;52.364;9.772;2023-09-12T03:32:04;21.83;;;11.90;;
5157;SDS011;2598;52.364;9.772;2023-09-12T03:34:30;17.17;;;12.83;;
5157;SDS011;2598;52.364;9.772;2023-09-12T03:36:56;18.90;;;12.30;;
5157;SDS011;2598;52.364;9.772;2023-09-12T03:39:23;17.67;;;12.57;;
5157;SDS011;2598;52.364;9.772;2023-09-12T03:41:49;17.13;;;11.80;;
5157;SDS011;2598;52.364;9.772;2023-09-12T03:44:15;17.03;;;12.00;;
5157;SDS011;2598;52.364;9.772;2023-09-12T03:46:41;21.33;;;13.57;;
5157;SDS011;2598;52.364;9.772;2023-09-12T03:49:07;20.20;;;12.63;;
5157;SDS011;2598;52.364;9.772;2023-09-12T03:51:33;19.30;;;14.87;;
5157;SDS011;2598;52.364;9.772;2023-09-12T03:54:00;20.43;;;14.23;;
5157;SDS011;2598;52.364;9.772;2023-09-12T03:56:26;19.27;;;15.40;;
5157;SDS011;2598;52.364;9.772;2023-09-12T03:58:52;23.90;;;15.60;;
5157;SDS011;2598;52.364;9.772;2023-09-12T04:01:21;22.30;;;15.10;;
5157;SDS011;2598;52.364;9.772;2023-09-12T04:03:47;26.47;;;15.80;;
5157;SDS011;2598;52.364;9.772;2023-09-12T04:06:13;20.20;;;15.57;;
5157;SDS011;2598;52.364;9.772;2023-09-12T04:08:39;19.30;;;14.77;;
5157;SDS011;2598;52.364;9.772;2023-09-12T04:11:05;19.27;;;15.13;;
5157;SDS011;2598;52.364;9.772;2023-09-12T04:13:31;24.53;;;17.33;;
5157;SDS011;2598;52.364;9.772;2023-09-12T04:15:57;26.20;;;18.00;;
5157;SDS011;2598;52.364;9.772;2023-09-12T04:18:23;21.33;;;16.00;;
5157;SDS011;2598;52.364;9.772;2023-09-12T04:20:49;20.27;;;14.53;;
5157;SDS011;2598;52.364;9.772;2023-09-12T04:23:15;22.73;;;13.43;;
5157;SDS011;2598;52.364;9.772;2023-09-12T04:25:42;17.73;;;13.60;;
5157;SDS011;2598;52.364;9.772;2023-09-12T04:28:10;19.90;;;12.40;;
5157;SDS011;2598;52.364;9.772;2023-09-12T04:30:37;15.30;;;11.27;;
5157;SDS011;2598;52.364;9.772;2023-09-12T04:33:04;21.43;;;12.40;;
5157;SDS011;2598;52.364;9.772;2023-09-12T04:35:32;17.33;;;12.27;;
5157;SDS011;2598;52.364;9.772;2023-09-12T04:37:58;16.30;;;12.47;;
5157;SDS011;2598;52.364;9.772;2023-09-12T04:40:24;20.43;;;12.50;;
5157;SDS011;2598;52.364;9.772;2023-09-12T04:42:50;18.10;;;12.63;;
5157;SDS011;2598;52.364;9.772;2023-09-12T04:45:16;18.10;;;12.10;;
5157;SDS011;2598;52.364;9.772;2023-09-12T04:47:42;18.00;;;12.30;;
5157;SDS011;2598;52.364;9.772;2023-09-12T04:50:08;15.83;;;10.33;;
5157;SDS011;2598;52.364;9.772;2023-09-12T04:52:36;14.70;;;10.43;;
5157;SDS011;2598;52.364;9.772;2023-09-12T04:55:02;14.80;;;10.17;;
5157;SDS011;2598;52.364;9.772;2023-09-12T04:57:28;14.80;;;9.93;;
5157;SDS011;2598;52.364;9.772;2023-09-12T04:59:55;17.03;;;9.63;;
5157;SDS011;2598;52.364;9.772;2023-09-12T05:02:23;15.30;;;8.40;;
5157;SDS011;2598;52.364;9.772;2023-09-12T05:04:49;12.77;;;8.40;;
5157;SDS011;2598;52.364;9.772;2023-09-12T05:07:15;15.23;;;9.30;;
5157;SDS011;2598;52.364;9.772;2023-09-12T05:09:41;16.13;;;9.80;;
5157;SDS011;2598;52.364;9.772;2023-09-12T05:12:07;17.83;;;9.60;;
5157;SDS011;2598;52.364;9.772;2023-09-12T05:14:33;20.93;;;9.60;;
5157;SDS011;2598;52.364;9.772;2023-09-12T05:16:59;14.70;;;9.40;;
5157;SDS011;2598;52.364;9.772;2023-09-12T05:19:26;16.60;;;9.20;;
5157;SDS011;2598;52.364;9.772;2023-09-12T05:21:52;16.43;;;9.37;;
5157;SDS011;2598;52.364;9.772;2023-09-12T05:24:18;11.87;;;8.70;;
5157;SDS011;2598;52.364;9.772;2023-09-12T05:26:44;14.67;;;9.63;;
5157;SDS011;2598;52.364;9.772;2023-09-12T05:29:12;15.50;;;10.33;;
5157;SDS011;2598;52.364;9.772;2023-09-12T05:31:38;13.10;;;8.83;;
5157;SDS011;2598;52.364;9.772;2023-09-12T05:34:04;15.87;;;9.43;;
5157;SDS011;2598;52.364;9.772;2023-09-12T05:36:30;11.93;;;8.43;;
5157;SDS011;2598;52.364;9.772;2023-09-12T05:38:56;15.20;;;9.40;;
5157;SDS011;2598;52.364;9.772;2023-09-12T05:41:22;10.27;;;7.43;;
5157;SDS011;2598;52.364;9.772;2023-09-12T05:43:48;10.87;;;8.50;;
5157;SDS011;2598;52.364;9.772;2023-09-12T05:46:14;11.87;;;8.03;;
5157;SDS011;2598;52.364;9.772;2023-09-12T05:48:40;12.13;;;7.57;;
5157;SDS011;2598;52.364;9.772;2023-09-12T05:51:06;13.10;;;8.17;;
5157;SDS011;2598;52.364;9.772;2023-09-12T05:53:32;11.33;;;7.63;;
5157;SDS011;2598;52.364;9.772;2023-09-12T05:55:58;11.43;;;8.30;;
5157;SDS011;2598;52.364;9.772;2023-09-12T05:58:25;11.70;;;7.70;;
5157;SDS011;2598;52.364;9.772;2023-09-12T06:00:51;12.73;;;7.60;;
5157;SDS011;2598;52.364;9.772;2023-09-12T06:03:17;10.27;;;7.20;;
5157;SDS011;2598;52.364;9.772;2023-09-12T06:05:43;17.50;;;7.00;;
5157;SDS011;2598;52.364;9.772;2023-09-12T06:08:09;10.70;;;6.20;;
5157;SDS011;2598;52.364;9.772;2023-09-12T06:10:35;10.00;;;5.97;;
5157;SDS011;2598;52.364;9.772;2023-09-12T06:13:01;13.80;;;6.33;;
5157;SDS011;2598;52.364;9.772;2023-09-12T06:15:27;10.13;;;5.50;;
5157;SDS011;2598;52.364;9.772;2023-09-12T06:17:54;17.03;;;6.60;;
5157;SDS011;2598;52.364;9.772;2023-09-12T06:20:20;12.47;;;5.60;;
5157;SDS011;2598;52.364;9.772;2023-09-12T06:22:46;10.83;;;6.93;;
5157;SDS011;2598;52.364;9.772;2023-09-12T06:25:12;9.90;;;6.40;;
5157;SDS011;2598;52.364;9.772;2023-09-12T06:27:38;9.93;;;5.90;;
5157;SDS011;2598;52.364;9.772;2023-09-12T06:30:04;11.93;;;6.57;;
5157;SDS011;2598;52.364;9.772;2023-09-12T06:32:31;12.30;;;5.70;;
5157;SDS011;2598;52.364;9.772;2023-09-12T06:34:57;11.63;;;6.30;;
5157;SDS011;2598;52.364;9.772;2023-09-12T06:37:23;13.13;;;7.40;;
5157;SDS011;2598;52.364;9.772;2023-09-12T06:39:49;9.70;;;6.60;;
5157;SDS011;2598;52.364;9.772;2023-09-12T06:42:15;11.67;;;7.40;;
5157;SDS011;2598;52.364;9.772;2023-09-12T06:44:42;16.27;;;9.13;;
5157;SDS011;2598;52.364;9.772;2023-09-12T06:47:08;14.70;;;8.73;;
5157;SDS011;2598;52.364;9.772;2023-09-12T06:49:35;28.33;;;10.07;;
5157;SDS011;2598;52.364;9.772;2023-09-12T06:52:02;14.70;;;9.20;;
5157;SDS011;2598;52.364;9.772;2023-09-12T06:54:28;13.50;;;9.37;;
5157;SDS011;2598;52.364;9.772;2023-09-12T06:56:54;15.30;;;10.23;;
5157;SDS011;2598;52.364;9.772;2023-09-12T06:59:20;17.70;;;9.90;;
5157;SDS011;2598;52.364;9.772;2023-09-12T07:01:46;13.70;;;8.93;;
5157;SDS011;2598;52.364;9.772;2023-09-12T07:04:12;14.30;;;9.83;;
5157;SDS011;2598;52.364;9.772;2023-09-12T07:06:38;19.23;;;11.23;;
5157;SDS011;2598;52.364;9.772;2023-09-12T07:09:04;15.97;;;12.07;;
5157;SDS011;2598;52.364;9.772;2023-09-12T07:11:31;19.83;;;14.80;;
5157;SDS011;2598;52.364;9.772;2023-09-12T07:13:57;23.33;;;13.57;;
5157;SDS011;2598;52.364;9.772;2023-09-12T07:16:23;20.47;;;14.87;;
5157;SDS011;2598;52.364;9.772;2023-09-12T07:18:49;24.23;;;14.67;;
5157;SDS011;2598;52.364;9.772;2023-09-12T07:21:15;21.27;;;13.70;;
5157;SDS011;2598;52.364;9.772;2023-09-12T07:23:41;17.93;;;13.80;;
5157;SDS011;2598;52.364;9.772;2023-09-12T07:26:11;22.60;;;13.53;;
5157;SDS011;2598;52.364;9.772;2023-09-12T07:28:37;21.77;;;13.63;;
5157;SDS011;2598;52.364;9.772;2023-09-12T07:31:03;19.23;;;13.17;;
5157;SDS011;2598;52.364;9.772;2023-09-12T07:33:29;19.27;;;12.67;;
5157;SDS011;2598;52.364;9.772;2023-09-12T07:35:55;17.00;;;11.43;;
5157;SDS011;2598;52.364;9.772;2023-09-12T07:38:21;13.40;;;9.87;;
5157;SDS011;2598;52.364;9.772;2023-09-12T07:40:48;14.80;;;11.40;;
5157;SDS011;2598;52.364;9.772;2023-09-12T07:43:14;16.47;;;9.80;;
5157;SDS011;2598;52.364;9.772;2023-09-12T07:45:40;16.00;;;8.90;;
5157;SDS011;2598;52.364;9.772;2023-09-12T07:48:09;14.87;;;10.03;;
5157;SDS011;2598;52.364;9.772;2023-09-12T07:50:38;12.03;;;9.30;;
5157;SDS011;2598;52.364;9.772;2023-09-12T07:53:07;12.40;;;9.33;;
5157;SDS011;2598;52.364;9.772;2023-09-12T07:55:39;16.90;;;10.70;;
5157;SDS011;2598;52.364;9.772;2023-09-12T07:58:14;13.90;;;10.73;;
5157;SDS011;2598;52.364;9.772;2023-09-12T08:00:40;16.60;;;10.67;;
5157;SDS011;2598;52.364;9.772;2023-09-12T08:03:06;15.70;;;11.90;;
5157;SDS011;2598;52.364;9.772;2023-09-12T08:05:32;17.27;;;13.13;;
5157;SDS011;2598;52.364;9.772;2023-09-12T08:07:58;16.80;;;13.10;;
5157;SDS011;2598;52.364;9.772;2023-09-12T08:10:25;19.60;;;13.73;;
5157;SDS011;2598;52.364;9.772;2023-09-12T08:12:51;20.43;;;14.33;;
5157;SDS011;2598;52.364;9.772;2023-09-12T08:15:17;18.87;;;14.83;;
5157;SDS011;2598;52.364;9.772;2023-09-12T08:17:43;20.97;;;15.07;;
5157;SDS011;2598;52.364;9.772;2023-09-12T08:20:10;18.07;;;14.63;;
5157;SDS011;2598;52.364;9.772;2023-09-12T08:22:36;18.83;;;14.47;;
5157;SDS011;2598;52.364;9.772;2023-09-12T08:25:03;19.20;;;14.03;;
5157;SDS011;2598;52.364;9.772;2023-09-12T08:27:29;20.53;;;13.73;;
5157;SDS011;2598;52.364;9.772;2023-09-12T08:29:55;22.87;;;13.40;;
5157;SDS011;2598;52.364;9.772;2023-09-12T08:32:21;15.97;;;12.47;;
5157;SDS011;2598;52.364;9.772;2023-09-12T08:34:47;21.17;;;12.10;;
5157;SDS011;2598;52.364;9.772;2023-09-12T08:37:13;16.20;;;12.10;;
5157;SDS011;2598;52.364;9.772;2023-09-12T08:39:43;18.97;;;13.00;;
5157;SDS011;2598;52.364;9.772;2023-09-12T08:42:11;18.43;;;13.93;;
5157;SDS011;2598;52.364;9.772;2023-09-12T08:44:38;18.90;;;14.90;;
5157;SDS011;2598;52.364;9.772;2023-09-12T08:47:05;18.20;;;12.47;;
5157;SDS011;2598;52.364;9.772;2023-09-12T08:49:33;21.03;;;14.13;;
5157;SDS011;2598;52.364;9.772;2023-09-12T08:52:00;17.63;;;13.20;;
5157;SDS011;2598;52.364;9.772;2023-09-12T08:54:26;16.80;;;13.53;;
5157;SDS011;2598;52.364;9.772;2023-09-12T08:56:52;20.53;;;14.77;;
5157;SDS011;2598;52.364;9.772;2023-09-12T08:59:19;17.23;;;12.23;;
5157;SDS011;2598;52.364;9.772;2023-09-12T09:01:46;16.87;;;12.67;;
5157;SDS011;2598;52.364;9.772;2023-09-12T09:04:12;17.10;;;13.27;;
5157;SDS011;2598;52.364;9.772;2023-09-12T09:06:38;17.80;;;13.20;;
5157;SDS011;2598;52.364;9.772;2023-09-12T09:09:07;20.63;;;13.17;;
5157;SDS011;2598;52.364;9.772;2023-09-12T09:11:33;22.87;;;13.47;;
5157;SDS011;2598;52.364;9.772;2023-09-12T09:13:59;12.27;;;7.90;;
5157;SDS011;2598;52.364;9.772;2023-09-12T09:16:25;14.63;;;7.80;;
5157;SDS011;2598;52.364;9.772;2023-09-12T09:18:55;13.20;;;7.20;;
5157;SDS011;2598;52.364;9.772;2023-09-12T09:21:23;9.83;;;5.20;;
5157;SDS011;2598;52.364;9.772;2023-09-12T09:23:50;9.30;;;5.03;;
5157;SDS011;2598;52.364;9.772;2023-09-12T09:26:16;8.77;;;4.23;;
5157;SDS011;2598;52.364;9.772;2023-09-12T09:28:42;6.90;;;4.33;;
5157;SDS011;2598;52.364;9.772;2023-09-12T09:31:12;8.73;;;4.03;;
5157;SDS011;2598;52.364;9.772;2023-09-12T09:33:39;6.40;;;4.00;;
5157;SDS011;2598;52.364;9.772;2023-09-12T09:36:06;7.40;;;4.50;;
5157;SDS011;2598;52.364;9.772;2023-09-12T09:38:34;7.40;;;4.47;;
5157;SDS011;2598;52.364;9.772;2023-09-12T09:41:03;5.40;;;3.80;;
5157;SDS011;2598;52.364;9.772;2023-09-12T09:43:29;6.80;;;4.50;;
5157;SDS011;2598;52.364;9.772;2023-09-12T09:45:56;7.27;;;4.43;;
5157;SDS011;2598;52.364;9.772;2023-09-12T09:48:23;7.70;;;4.90;;
5157;SDS011;2598;52.364;9.772;2023-09-12T09:50:51;6.97;;;4.47;;
5157;SDS011;2598;52.364;9.772;2023-09-12T09:53:21;8.97;;;4.87;;
5157;SDS011;2598;52.364;9.772;2023-09-12T09:55:47;7.93;;;5.03;;
5157;SDS011;2598;52.364;9.772;2023-09-12T09:58:16;6.97;;;4.53;;
5157;SDS011;2598;52.364;9.772;2023-09-12T10:00:42;6.60;;;4.43;;
5157;SDS011;2598;52.364;9.772;2023-09-12T10:03:08;7.13;;;4.40;;
5157;SDS011;2598;52.364;9.772;2023-09-12T10:05:37;7.20;;;5.00;;
5157;SDS011;2598;52.364;9.772;2023-09-12T10:08:03;7.50;;;5.20;;
5157;SDS011;2598;52.364;9.772;2023-09-12T10:10:32;7.10;;;4.43;;
5157;SDS011;2598;52.364;9.772;2023-09-12T10:12:59;7.70;;;5.17;;
5157;SDS011;2598;52.364;9.772;2023-09-12T10:15:29;7.80;;;5.00;;
5157;SDS011;2598;52.364;9.772;2023-09-12T10:17:56;8.77;;;5.23;;
5157;SDS011;2598;52.364;9.772;2023-09-12T10:20:24;6.37;;;4.97;;
5157;SDS011;2598;52.364;9.772;2023-09-12T10:23:07;8.90;;;5.13;;
5157;SDS011;2598;52.364;9.772;2023-09-12T10:25:36;6.87;;;4.70;;
5157;SDS011;2598;52.364;9.772;2023-09-12T10:28:05;8.70;;;5.73;;
5157;SDS011;2598;52.364;9.772;2023-09-12T10:30:31;8.13;;;5.27;;
5157;SDS011;2598;52.364;9.772;2023-09-12T10:32:58;6.50;;;4.57;;
5157;SDS011;2598;52.364;9.772;2023-09-12T10:35:26;10.60;;;5.90;;
5157;SDS011;2598;52.364;9.772;2023-09-12T10:37:53;12.00;;;6.43;;
5157;SDS011;2598;52.364;9.772;2023-09-12T10:40:20;9.87;;;6.50;;
5157;SDS011;2598;52.364;9.772;2023-09-12T10:42:46;9.80;;;6.20;;
5157;SDS011;2598;52.364;9.772;2023-09-12T10:45:12;8.10;;;5.37;;
5157;SDS011;2598;52.364;9.772;2023-09-12T10:47:38;11.20;;;5.80;;
5157;SDS011;2598;52.364;9.772;2023-09-12T10:50:05;9.53;;;5.23;;
5157;SDS011;2598;52.364;9.772;2023-09-12T10:52:32;7.97;;;4.97;;
5157;SDS011;2598;52.364;9.772;2023-09-12T10:55:01;7.83;;;5.03;;
5157;SDS011;2598;52.364;9.772;2023-09-12T10:57:30;7.70;;;5.00;;
5157;SDS011;2598;52.364;9.772;2023-09-12T11:02:28;9.13;;;5.47;;
5157;SDS011;2598;52.364;9.772;2023-09-12T11:04:55;8.87;;;5.00;;
5157;SDS011;2598;52.364;9.772;2023-09-12T11:07:29;9.00;;;5.67;;
5157;SDS011;2598;52.364;9.772;2023-09-12T11:12:37;9.93;;;6.13;;
5157;SDS011;2598;52.364;9.772;2023-09-12T11:15:04;9.23;;;5.73;;
5157;SDS011;2598;52.364;9.772;2023-09-12T11:20:06;8.17;;;5.20;;
5157;SDS011;2598;52.364;9.772;2023-09-12T11:22:36;9.70;;;5.90;;
5157;SDS011;2598;52.364;9.772;2023-09-12T11:25:04;8.00;;;4.97;;
5157;SDS011;2598;52.364;9.772;2023-09-12T11:27:44;8.00;;;5.30;;
5157;SDS011;2598;52.364;9.772;2023-09-12T11:30:11;9.53;;;6.13;;
5157;SDS011;2598;52.364;9.772;2023-09-12T11:32:37;8.03;;;5.53;;
5157;SDS011;2598;52.364;9.772;2023-09-12T11:35:06;7.80;;;6.17;;
5157;SDS011;2598;52.364;9.772;2023-09-12T11:37:33;8.57;;;6.20;;
5157;SDS011;2598;52.364;9.772;2023-09-12T11:40:02;8.60;;;5.77;;
5157;SDS011;2598;52.364;9.772;2023-09-12T11:42:28;11.53;;;5.97;;
5157;SDS011;2598;52.364;9.772;2023-09-12T11:44:55;7.83;;;5.10;;
5157;SDS011;2598;52.364;9.772;2023-09-12T11:47:21;10.73;;;5.83;;
5157;SDS011;2598;52.364;9.772;2023-09-12T11:49:48;8.30;;;5.07;;
5157;SDS011;2598;52.364;9.772;2023-09-12T11:52:14;8.53;;;5.33;;
5157;SDS011;2598;52.364;9.772;2023-09-12T11:54:44;10.10;;;5.90;;
5157;SDS011;2598;52.364;9.772;2023-09-12T11:57:14;7.00;;;5.00;;
5157;SDS011;2598;52.364;9.772;2023-09-12T11:59:40;8.30;;;5.77;;
5157;SDS011;2598;52.364;9.772;2023-09-12T12:02:10;9.10;;;5.80;;
5157;SDS011;2598;52.364;9.772;2023-09-12T12:04:37;9.33;;;6.37;;
5157;SDS011;2598;52.364;9.772;2023-09-12T12:07:03;10.10;;;6.93;;
5157;SDS011;2598;52.364;9.772;2023-09-12T12:09:30;12.43;;;7.60;;
5157;SDS011;2598;52.364;9.772;2023-09-12T12:11:56;10.50;;;6.83;;
5157;SDS011;2598;52.364;9.772;2023-09-12T12:14:26;12.90;;;7.10;;
5157;SDS011;2598;52.364;9.772;2023-09-12T12:16:52;9.60;;;7.47;;
5157;SDS011;2598;52.364;9.772;2023-09-12T12:19:18;15.40;;;7.60;;
5157;SDS011;2598;52.364;9.772;2023-09-12T12:21:44;9.90;;;6.60;;
5157;SDS011;2598;52.364;9.772;2023-09-12T12:24:11;11.03;;;7.20;;
5157;SDS011;2598;52.364;9.772;2023-09-12T12:26:40;11.40;;;7.90;;
5157;SDS011;2598;52.364;9.772;2023-09-12T12:29:06;11.53;;;7.77;;
5157;SDS011;2598;52.364;9.772;2023-09-12T12:31:32;9.20;;;7.17;;
5157;SDS011;2598;52.364;9.772;2023-09-12T12:33:58;12.97;;;7.90;;
5157;SDS011;2598;52.364;9.772;2023-09-12T12:36:24;10.43;;;6.37;;
5157;SDS011;2598;52.364;9.772;2023-09-12T12:38:52;10.30;;;6.97;;
5157;SDS011;2598;52.364;9.772;2023-09-12T12:41:22;11.00;;;6.70;;
5157;SDS011;2598;52.364;9.772;2023-09-12T12:43:49;12.53;;;6.70;;
5157;SDS011;2598;52.364;9.772;2023-09-12T12:46:17;9.60;;;7.53;;
5157;SDS011;2598;52.364;9.772;2023-09-12T12:48:44;11.07;;;7.13;;
5157;SDS011;2598;52.364;9.772;2023-09-12T12:53:42;9.87;;;6.40;;
5157;SDS011;2598;52.364;9.772;2023-09-12T12:56:08;10.37;;;6.27;;
5157;SDS011;2598;52.364;9.772;2023-09-12T12:58:35;9.30;;;6.57;;
5157;SDS011;2598;52.364;9.772;2023-09-12T13:01:02;10.37;;;6.47;;
5157;SDS011;2598;52.364;9.772;2023-09-12T13:03:28;8.77;;;6.47;;
5157;SDS011;2598;52.364;9.772;2023-09-12T13:05:55;9.30;;;6.40;;
5157;SDS011;2598;52.364;9.772;2023-09-12T13:08:21;9.33;;;5.80;;
5157;SDS011;2598;52.364;9.772;2023-09-12T13:10:47;9.10;;;6.00;;
5157;SDS011;2598;52.364;9.772;2023-09-12T13:13:13;8.83;;;5.90;;
5157;SDS011;2598;52.364;9.772;2023-09-12T13:15:39;11.20;;;6.10;;
5157;SDS011;2598;52.364;9.772;2023-09-12T13:18:05;10.00;;;6.60;;
5157;SDS011;2598;52.364;9.772;2023-09-12T13:20:31;9.60;;;6.47;;
5157;SDS011;2598;52.364;9.772;2023-09-12T13:22:57;9.43;;;5.60;;
5157;SDS011;2598;52.364;9.772;2023-09-12T13:25:23;8.30;;;6.20;;
5157;SDS011;2598;52.364;9.772;2023-09-12T13:27:49;9.37;;;6.50;;
5157;SDS011;2598;52.364;9.772;2023-09-12T13:30:15;12.93;;;6.70;;
5157;SDS011;2598;52.364;9.772;2023-09-12T13:32:41;7.27;;;5.00;;
5157;SDS011;2598;52.364;9.772;2023-09-12T13:35:07;6.40;;;4.20;;
5157;SDS011;2598;52.364;9.772;2023-09-12T13:37:33;7.50;;;4.60;;
5157;SDS011;2598;52.364;9.772;2023-09-12T13:39:59;7.63;;;4.20;;
5157;SDS011;2598;52.364;9.772;2023-09-12T13:42:25;8.83;;;4.07;;
5157;SDS011;2598;52.364;9.772;2023-09-12T13:44:55;9.67;;;4.60;;
5157;SDS011;2598;52.364;9.772;2023-09-12T13:47:21;7.70;;;3.90;;
5157;SDS011;2598;52.364;9.772;2023-09-12T13:49:48;7.20;;;3.53;;
5157;SDS011;2598;52.364;9.772;2023-09-12T13:52:16;7.33;;;4.00;;
5157;SDS011;2598;52.364;9.772;2023-09-12T13:54:42;7.80;;;4.57;;
5157;SDS011;2598;52.364;9.772;2023-09-12T13:57:08;8.30;;;4.17;;
5157;SDS011;2598;52.364;9.772;2023-09-12T13:59:34;6.93;;;4.17;;
5157;SDS011;2598;52.364;9.772;2023-09-12T14:02:00;7.93;;;4.30;;
5157;SDS011;2598;52.364;9.772;2023-09-12T14:04:26;5.80;;;3.40;;
5157;SDS011;2598;52.364;9.772;2023-09-12T14:06:52;5.83;;;3.60;;
5157;SDS011;2598;52.364;9.772;2023-09-12T14:09:18;5.33;;;3.63;;
5157;SDS011;2598;52.364;9.772;2023-09-12T14:11:44;6.47;;;4.10;;
5157;SDS011;2598;52.364;9.772;2023-09-12T14:14:12;6.90;;;3.80;;
5157;SDS011;2598;52.364;9.772;2023-09-12T14:16:38;10.00;;;3.53;;
5157;SDS011;2598;52.364;9.772;2023-09-12T14:19:04;5.33;;;2.70;;
5157;SDS011;2598;52.364;9.772;2023-09-12T14:21:30;8.70;;;3.60;;
5157;SDS011;2598;52.364;9.772;2023-09-12T14:23:57;5.27;;;3.10;;
5157;SDS011;2598;52.364;9.772;2023-09-12T14:26:23;5.40;;;3.73;;
5157;SDS011;2598;52.364;9.772;2023-09-12T14:28:49;7.53;;;4.00;;
5157;SDS011;2598;52.364;9.772;2023-09-12T14:31:15;9.03;;;3.97;;
5157;SDS011;2598;52.364;9.772;2023-09-12T14:33:42;7.17;;;4.40;;
5157;SDS011;2598;52.364;9.772;2023-09-12T14:36:08;8.73;;;3.97;;
5157;SDS011;2598;52.364;9.772;2023-09-12T14:38:34;7.00;;;3.70;;
5157;SDS011;2598;52.364;9.772;2023-09-12T14:41:00;7.00;;;3.70;;
5157;SDS011;2598;52.364;9.772;2023-09-12T14:43:26;8.50;;;3.30;;
5157;SDS011;2598;52.364;9.772;2023-09-12T14:45:54;5.83;;;3.80;;
5157;SDS011;2598;52.364;9.772;2023-09-12T14:48:20;4.87;;;3.33;;
5157;SDS011;2598;52.364;9.772;2023-09-12T14:50:46;5.83;;;3.47;;
5157;SDS011;2598;52.364;9.772;2023-09-12T14:53:15;6.00;;;2.93;;
5157;SDS011;2598;52.364;9.772;2023-09-12T14:55:41;5.77;;;3.40;;
5157;SDS011;2598;52.364;9.772;2023-09-12T14:58:08;6.20;;;3.70;;
5157;SDS011;2598;52.364;9.772;2023-09-12T15:00:34;7.33;;;3.87;;
5157;SDS011;2598;52.364;9.772;2023-09-12T15:03:01;6.20;;;3.57;;
5157;SDS011;2598;52.364;9.772;2023-09-12T15:05:27;7.43;;;3.90;;
5157;SDS011;2598;52.364;9.772;2023-09-12T15:07:53;7.37;;;3.90;;
5157;SDS011;2598;52.364;9.772;2023-09-12T15:10:19;6.47;;;3.80;;
5157;SDS011;2598;52.364;9.772;2023-09-12T15:12:45;6.30;;;3.37;;
5157;SDS011;2598;52.364;9.772;2023-09-12T15:15:11;6.77;;;3.80;;